createdAt,value
2018-10-06T00:00:06.840Z,13.30
2018-10-06T00:01:06.846Z,14.60
2018-10-06T00:02:06.863Z,13.10
2018-10-06T00:03:06.884Z,13.40
2018-10-06T00:04:06.896Z,13.10
2018-10-06T00:05:06.915Z,14.20
2018-10-06T00:06:06.932Z,13.30
2018-10-06T00:07:06.948Z,13.70
2018-10-06T00:08:06.966Z,13.50
2018-10-06T00:09:06.987Z,13.00
2018-10-06T00:10:07.001Z,13.30
2018-10-06T00:11:07.014Z,13.20
2018-10-06T00:12:07.030Z,13.10
2018-10-06T00:13:07.047Z,13.70
2018-10-06T00:14:07.068Z,13.30
2018-10-06T00:15:07.084Z,13.30
2018-10-06T00:16:07.096Z,13.40
2018-10-06T00:17:07.111Z,13.20
2018-10-06T00:18:07.133Z,13.30
2018-10-06T00:19:07.145Z,13.80
2018-10-06T00:20:07.162Z,13.50
2018-10-06T00:21:07.182Z,14.00
2018-10-06T00:22:07.198Z,14.40
2018-10-06T00:23:07.220Z,14.20
2018-10-06T00:24:07.230Z,14.10
2018-10-06T00:25:07.254Z,14.40
2018-10-06T00:26:07.262Z,14.20
2018-10-06T00:27:07.282Z,15.10
2018-10-06T00:28:07.307Z,15.40
2018-10-06T00:29:07.314Z,15.30
2018-10-06T00:30:07.329Z,14.40
2018-10-06T00:31:07.353Z,14.80
2018-10-06T00:32:07.362Z,14.80
2018-10-06T00:33:07.381Z,14.90
2018-10-06T00:34:07.393Z,15.30
2018-10-06T00:35:07.413Z,15.70
2018-10-06T00:36:07.428Z,15.40
2018-10-06T00:37:07.445Z,15.00
2018-10-06T00:38:07.463Z,14.20
2018-10-06T00:39:07.477Z,14.70
2018-10-06T00:40:07.496Z,15.40
2018-10-06T00:41:07.511Z,14.90
2018-10-06T00:42:07.525Z,15.30
2018-10-06T00:43:07.546Z,15.20
2018-10-06T00:44:07.563Z,14.90
2018-10-06T00:45:07.574Z,15.30
2018-10-06T00:46:07.593Z,14.90
2018-10-06T00:47:07.666Z,14.90
2018-10-06T00:48:07.626Z,14.90
2018-10-06T00:49:07.644Z,14.70
2018-10-06T00:50:07.662Z,15.30
2018-10-06T00:51:07.675Z,13.70
2018-10-06T00:52:07.691Z,14.40
2018-10-06T00:53:07.707Z,13.60
2018-10-06T00:54:07.724Z,14.10
2018-10-06T00:55:07.740Z,13.90
2018-10-06T00:56:07.766Z,15.10
2018-10-06T00:57:07.774Z,14.60
2018-10-06T00:58:07.790Z,14.30
2018-10-06T00:59:07.805Z,13.90
2018-10-06T01:00:07.820Z,14.30
2018-10-06T01:01:07.840Z,13.50
2018-10-06T01:02:07.857Z,13.90
2018-10-06T01:03:07.871Z,14.20
2018-10-06T01:04:07.887Z,14.00
2018-10-06T01:05:07.906Z,14.10
2018-10-06T01:06:07.920Z,14.10
2018-10-06T01:07:07.943Z,14.60
2018-10-06T01:08:07.954Z,14.30
2018-10-06T01:09:07.970Z,14.10
2018-10-06T01:10:07.986Z,14.40
2018-10-06T01:11:08.001Z,14.20
2018-10-06T01:12:08.019Z,15.10
2018-10-06T01:13:08.034Z,15.10
2018-10-06T01:14:08.051Z,15.60
2018-10-06T01:15:08.070Z,15.00
2018-10-06T01:16:08.081Z,14.30
2018-10-06T01:17:08.105Z,14.90
2018-10-06T01:18:08.125Z,14.20
2018-10-06T01:19:08.132Z,14.30
2018-10-06T01:20:08.151Z,14.50
2018-10-06T01:21:08.165Z,14.50
2018-10-06T01:22:08.180Z,14.60
2018-10-06T01:23:08.208Z,14.70
2018-10-06T01:24:08.218Z,14.30
2018-10-06T01:25:08.234Z,14.30
2018-10-06T01:26:08.246Z,14.80
2018-10-06T01:27:08.270Z,14.10
2018-10-06T01:28:08.279Z,14.00
2018-10-06T01:29:08.294Z,14.20
2018-10-06T01:30:08.311Z,14.50
2018-10-06T01:31:08.329Z,14.10
2018-10-06T01:32:08.344Z,14.20
2018-10-06T01:33:08.360Z,14.00
2018-10-06T01:34:08.379Z,14.80
2018-10-06T01:35:08.397Z,13.90
2018-10-06T01:36:08.407Z,13.90
2018-10-06T01:37:08.438Z,14.10
2018-10-06T01:38:08.464Z,14.00
2018-10-06T01:39:08.461Z,13.80
2018-10-06T01:40:08.476Z,13.30
2018-10-06T01:41:08.497Z,13.60
2018-10-06T01:42:08.503Z,14.70
2018-10-06T01:43:08.520Z,14.90
2018-10-06T01:44:08.543Z,14.10
2018-10-06T01:45:08.562Z,14.00
2018-10-06T01:46:08.572Z,14.20
2018-10-06T01:47:08.588Z,14.00
2018-10-06T01:48:08.601Z,14.60
2018-10-06T01:49:08.627Z,14.90
2018-10-06T01:50:08.635Z,14.60
2018-10-06T01:51:08.721Z,15.00
2018-10-06T01:52:08.670Z,13.20
2018-10-06T01:53:08.685Z,15.00
2018-10-06T01:54:08.700Z,14.70
2018-10-06T01:55:08.720Z,14.30
2018-10-06T01:56:08.731Z,14.10
2018-10-06T01:57:08.745Z,13.90
2018-10-06T01:58:08.762Z,14.40
2018-10-06T01:59:08.780Z,14.60
2018-10-06T02:00:08.800Z,15.00
2018-10-06T02:01:08.813Z,14.10
2018-10-06T02:02:08.887Z,14.30
2018-10-06T02:03:08.845Z,13.70
2018-10-06T02:04:08.864Z,14.40
2018-10-06T02:05:08.880Z,14.80
2018-10-06T02:06:08.898Z,14.50
2018-10-06T02:07:08.909Z,14.60
2018-10-06T02:08:08.926Z,13.70
2018-10-06T02:09:08.943Z,13.70
2018-10-06T02:10:08.960Z,14.50
2018-10-06T02:11:08.983Z,14.50
2018-10-06T02:12:08.987Z,14.80
2018-10-06T02:13:09.010Z,15.80
2018-10-06T02:14:09.027Z,15.70
2018-10-06T02:15:09.039Z,15.70
2018-10-06T02:16:09.061Z,15.50
2018-10-06T02:17:09.069Z,17.10
2018-10-06T02:18:09.086Z,16.10
2018-10-06T02:19:09.115Z,16.30
2018-10-06T02:20:09.120Z,15.40
2018-10-06T02:21:09.135Z,16.40
2018-10-06T02:22:09.154Z,16.10
2018-10-06T02:23:09.167Z,16.10
2018-10-06T02:24:09.184Z,14.90
2018-10-06T02:25:09.197Z,15.80
2018-10-06T02:26:09.215Z,15.60
2018-10-06T02:27:09.229Z,15.60
2018-10-06T02:28:09.248Z,15.10
2018-10-06T02:29:09.262Z,16.40
2018-10-06T02:30:09.377Z,15.50
2018-10-06T02:31:09.304Z,15.50
2018-10-06T02:32:09.317Z,16.00
2018-10-06T02:33:09.324Z,15.80
2018-10-06T02:34:09.347Z,16.00
2018-10-06T02:35:09.365Z,15.90
2018-10-06T02:36:09.385Z,15.60
2018-10-06T02:37:09.392Z,15.70
2018-10-06T02:38:09.405Z,15.60
2018-10-06T02:39:09.421Z,16.00
2018-10-06T02:40:09.438Z,15.80
2018-10-06T02:41:09.451Z,15.60
2018-10-06T02:42:09.473Z,15.50
2018-10-06T02:43:09.491Z,15.90
2018-10-06T02:44:09.501Z,15.40
2018-10-06T02:45:09.521Z,14.90
2018-10-06T02:46:09.532Z,15.80
2018-10-06T02:47:09.551Z,15.20
2018-10-06T02:48:09.562Z,15.50
2018-10-06T02:49:09.578Z,15.80
2018-10-06T02:50:09.599Z,16.20
2018-10-06T02:51:09.614Z,15.40
2018-10-06T02:52:09.628Z,15.20
2018-10-06T02:53:09.647Z,15.50
2018-10-06T02:54:09.660Z,16.00
2018-10-06T02:55:09.674Z,16.30
2018-10-06T02:56:09.689Z,15.40
2018-10-06T02:57:09.711Z,15.30
2018-10-06T02:58:09.726Z,15.30
2018-10-06T02:59:09.738Z,15.70
2018-10-06T03:00:09.755Z,15.20
2018-10-06T03:01:09.767Z,15.00
2018-10-06T03:02:09.790Z,15.70
2018-10-06T03:03:09.798Z,16.10
2018-10-06T03:04:09.814Z,16.00
2018-10-06T03:05:09.833Z,15.50
2018-10-06T03:06:09.851Z,15.90
2018-10-06T03:07:09.869Z,15.30
2018-10-06T03:08:09.878Z,15.90
2018-10-06T03:38:35.071Z,11.60
2018-10-06T03:39:35.051Z,17.40
2018-10-06T03:41:26.961Z,19.70
2018-10-06T03:42:26.968Z,18.70
2018-10-06T03:44:18.900Z,18.10
2018-10-06T03:45:18.884Z,18.40
2018-10-06T03:47:10.791Z,17.90
2018-10-06T03:48:10.790Z,17.40
2018-10-06T03:50:02.719Z,17.30
2018-10-06T03:51:02.710Z,17.00
2018-10-06T03:52:54.634Z,16.10
2018-10-06T03:53:54.636Z,17.10
2018-10-06T03:55:46.568Z,16.40
2018-10-06T03:56:46.545Z,16.80
2018-10-06T03:58:38.494Z,16.30
2018-10-06T03:59:38.479Z,16.70
2018-10-06T04:01:30.379Z,16.70
2018-10-06T04:02:30.392Z,17.10
2018-10-06T04:04:22.320Z,17.20
2018-10-06T04:05:22.309Z,16.60
2018-10-06T04:07:14.213Z,16.90
2018-10-06T04:08:14.233Z,15.60
2018-10-06T04:10:06.158Z,15.80
2018-10-06T04:11:06.143Z,16.20
2018-10-06T04:12:58.062Z,15.70
2018-10-06T04:13:58.066Z,16.50
2018-10-06T04:15:50.004Z,15.60
2018-10-06T04:16:49.993Z,15.50
2018-10-06T04:18:41.901Z,15.50
2018-10-06T04:19:41.908Z,16.00
2018-10-06T04:21:33.834Z,15.60
2018-10-06T04:22:33.836Z,15.60
2018-10-06T04:24:25.760Z,15.80
2018-10-06T04:25:25.740Z,15.10
2018-10-06T04:27:17.654Z,15.20
2018-10-06T04:28:17.663Z,15.70
2018-10-06T04:30:09.598Z,15.50
2018-10-06T04:31:09.585Z,15.40
2018-10-06T04:33:01.507Z,15.20
2018-10-06T04:34:01.513Z,14.80
2018-10-06T04:35:53.443Z,15.60
2018-10-06T04:36:53.432Z,15.70
2018-10-06T04:38:45.343Z,15.10
2018-10-06T04:39:45.349Z,16.00
2018-10-06T04:41:37.294Z,14.20
2018-10-06T04:42:37.288Z,15.40
2018-10-06T04:44:29.213Z,15.00
2018-10-06T04:45:29.200Z,15.10
2018-10-06T04:47:21.112Z,15.40
2018-10-06T04:48:21.120Z,15.40
2018-10-06T04:50:13.062Z,16.00
2018-10-06T04:51:13.045Z,16.00
2018-10-06T04:53:04.994Z,15.70
2018-10-06T04:54:04.968Z,15.50
2018-10-06T04:55:56.904Z,16.20
2018-10-06T04:56:56.889Z,16.00
2018-10-06T04:58:48.810Z,15.70
2018-10-06T04:59:48.812Z,15.80
2018-10-06T05:01:40.763Z,15.80
2018-10-06T05:02:40.737Z,15.80
2018-10-06T05:04:32.681Z,16.50
2018-10-06T05:05:32.668Z,16.50
2018-10-06T05:07:24.578Z,16.00
2018-10-06T05:08:24.586Z,16.40
2018-10-06T05:10:16.521Z,15.80
2018-10-06T05:11:16.524Z,16.90
2018-10-06T05:13:08.424Z,17.10
2018-10-06T05:14:08.442Z,16.80
2018-10-06T05:16:00.368Z,16.40
2018-10-06T05:17:00.353Z,16.90
2018-10-06T05:18:52.270Z,17.40
2018-10-06T05:19:52.276Z,17.60
2018-10-06T05:21:44.209Z,17.30
2018-10-06T05:22:44.195Z,17.50
2018-10-06T05:24:36.146Z,18.50
2018-10-06T05:25:36.138Z,17.40
2018-10-06T05:27:28.042Z,17.60
2018-10-06T05:28:28.048Z,17.70
2018-10-06T05:30:19.992Z,17.30
2018-10-06T05:31:19.973Z,18.00
2018-10-06T05:33:11.888Z,17.50
2018-10-06T05:34:11.995Z,18.50
2018-10-06T05:36:04.024Z,17.70
2018-10-06T05:37:04.010Z,18.10
2018-10-06T05:38:55.925Z,18.70
2018-10-06T05:39:55.929Z,18.50
2018-10-06T05:41:47.882Z,17.60
2018-10-06T05:42:47.852Z,18.70
2018-10-06T05:44:39.797Z,18.20
2018-10-06T05:45:39.767Z,18.10
2018-10-06T05:47:31.684Z,18.60
2018-10-06T05:48:31.688Z,18.30
2018-10-06T05:50:23.638Z,18.40
2018-10-06T05:51:23.606Z,17.70
2018-10-06T05:53:15.522Z,18.10
2018-10-06T05:54:15.527Z,17.60
2018-10-06T05:56:07.484Z,18.80
2018-10-06T05:57:07.467Z,17.80
2018-10-06T05:58:59.435Z,17.40
2018-10-06T05:59:59.382Z,17.60
2018-10-06T06:01:51.319Z,16.90
2018-10-06T06:02:51.305Z,17.10
2018-10-06T06:04:43.214Z,17.20
2018-10-06T06:05:43.225Z,17.10
2018-10-06T06:07:35.172Z,17.20
2018-10-06T06:08:35.164Z,16.70
2018-10-06T06:10:27.089Z,18.50
2018-10-06T06:11:27.082Z,17.00
2018-10-06T06:13:18.987Z,17.00
2018-10-06T06:14:19.031Z,17.10
2018-10-06T06:16:10.925Z,17.70
2018-10-06T06:17:10.914Z,17.60
2018-10-06T06:19:02.837Z,17.10
2018-10-06T06:20:02.841Z,17.50
2018-10-06T06:21:54.775Z,16.90
2018-10-06T06:22:54.768Z,16.90
2018-10-06T06:24:46.692Z,17.30
2018-10-06T06:25:46.699Z,17.30
2018-10-06T06:27:38.631Z,17.40
2018-10-06T06:28:38.613Z,17.20
2018-10-06T06:30:30.546Z,16.10
2018-10-06T06:31:30.603Z,17.20
2018-10-06T06:33:22.451Z,16.80
2018-10-06T06:34:22.464Z,17.00
2018-10-06T06:36:14.398Z,16.40
2018-10-06T06:37:14.386Z,16.30
2018-10-06T06:39:06.311Z,16.40
2018-10-06T06:40:06.306Z,16.60
2018-10-06T06:41:58.247Z,16.30
2018-10-06T06:42:58.240Z,16.70
2018-10-06T06:44:50.153Z,16.90
2018-10-06T06:45:50.170Z,16.80
2018-10-06T06:47:42.106Z,17.00
2018-10-06T06:48:42.084Z,17.20
2018-10-06T06:50:34.011Z,16.30
2018-10-06T06:51:34.002Z,16.20
2018-10-06T06:53:25.917Z,15.00
2018-10-06T06:54:25.928Z,14.90
2018-10-06T06:56:17.857Z,15.10
2018-10-06T06:57:17.851Z,15.00
2018-10-06T06:59:09.779Z,15.30
2018-10-06T07:00:09.781Z,14.40
2018-10-06T07:02:01.727Z,13.60
2018-10-06T07:03:01.721Z,13.80
2018-10-06T07:04:53.645Z,14.30
2018-10-06T07:05:53.697Z,13.40
2018-10-06T07:07:45.598Z,13.80
2018-10-06T07:08:45.576Z,14.00
2018-10-06T07:10:38.001Z,13.10
2018-10-06T07:11:38.004Z,13.50
2018-10-06T07:13:30.015Z,12.60
2018-10-06T07:14:30.020Z,12.60
2018-10-06T07:16:22.067Z,12.40
2018-10-06T07:17:22.057Z,12.30
2018-10-06T07:19:14.070Z,11.90
2018-10-06T07:20:14.086Z,11.40
2018-10-06T07:22:06.021Z,11.00
2018-10-06T07:23:06.004Z,11.50
2018-10-06T07:24:57.928Z,11.00
2018-10-06T07:25:57.939Z,11.30
2018-10-06T07:27:49.898Z,10.90
2018-10-06T07:28:49.880Z,11.20
2018-10-06T07:30:41.829Z,10.70
2018-10-06T07:31:41.844Z,10.30
2018-10-06T07:33:33.804Z,9.70
2018-10-06T07:34:33.826Z,10.10
2018-10-06T07:36:25.761Z,11.00
2018-10-06T07:37:25.764Z,10.50
2018-10-06T07:39:17.665Z,10.00
2018-10-06T07:40:17.670Z,10.60
2018-10-06T07:42:09.630Z,9.80
2018-10-06T07:43:09.604Z,10.20
2018-10-06T07:45:01.632Z,10.00
2018-10-06T07:46:01.538Z,9.70
2018-10-06T07:47:53.735Z,9.70
2018-10-06T07:48:53.531Z,9.50
2018-10-06T07:50:45.491Z,10.00
2018-10-06T07:51:45.640Z,10.30
2018-10-06T07:53:37.414Z,9.80
2018-10-06T07:54:37.395Z,9.60
2018-10-06T07:56:29.344Z,10.00
2018-10-06T07:57:29.853Z,10.10
2018-10-06T07:59:21.266Z,9.80
2018-10-06T08:00:21.341Z,9.30
2018-10-06T08:02:14.234Z,9.80
2018-10-06T08:03:13.193Z,10.40
2018-10-06T08:05:05.095Z,9.80
2018-10-06T08:06:05.119Z,10.50
2018-10-06T08:07:57.182Z,10.30
2018-10-06T08:08:57.039Z,10.70
2018-10-06T08:10:48.982Z,9.70
2018-10-06T08:11:49.009Z,9.70
2018-10-06T08:13:40.963Z,9.90
2018-10-06T08:14:40.909Z,9.70
2018-10-06T08:16:32.925Z,9.40
2018-10-06T08:17:32.824Z,8.90
2018-10-06T08:19:24.791Z,9.40
2018-10-06T08:20:24.752Z,9.30
2018-10-06T08:22:16.813Z,8.90
2018-10-06T08:23:16.729Z,8.70
2018-10-06T08:25:08.602Z,8.90
2018-10-06T08:26:08.608Z,8.60
2018-10-06T08:28:00.673Z,8.80
2018-10-06T08:29:00.528Z,9.30
2018-10-06T08:30:52.470Z,8.50
2018-10-06T08:31:52.556Z,9.20
2018-10-06T08:33:44.540Z,9.00
2018-10-06T08:34:44.604Z,8.40
2018-10-06T08:36:36.529Z,8.50
2018-10-06T08:37:36.615Z,8.20
2018-10-06T08:39:28.446Z,8.30
2018-10-06T08:40:28.515Z,8.10
2018-10-06T08:42:20.439Z,8.20
2018-10-06T08:43:20.486Z,8.20
2018-10-06T08:45:12.836Z,8.90
2018-10-06T08:46:12.864Z,7.80
2018-10-06T08:48:04.780Z,8.30
2018-10-06T08:49:04.755Z,8.20
2018-10-06T08:50:56.725Z,7.80
2018-10-06T08:51:56.780Z,7.50
2018-10-06T08:52:56.756Z,7.70
2018-10-06T08:53:56.749Z,7.70
2018-10-06T08:54:56.751Z,7.90
2018-10-06T08:55:56.842Z,8.00
2018-10-06T08:56:56.796Z,7.60
2018-10-06T08:57:56.841Z,7.60
2018-10-06T08:58:56.835Z,7.90
2018-10-06T08:59:56.884Z,7.90
2018-10-06T09:00:56.912Z,7.70
2018-10-06T09:01:56.926Z,7.60
2018-10-06T09:02:56.909Z,7.70
2018-10-06T09:03:56.938Z,7.10
2018-10-06T09:04:57.052Z,7.90
2018-10-06T09:05:56.988Z,7.60
2018-10-06T09:06:57.093Z,7.90
2018-10-06T09:07:57.012Z,6.90
2018-10-06T09:08:57.029Z,7.30
2018-10-06T09:09:57.086Z,7.50
2018-10-06T09:10:57.225Z,7.70
2018-10-06T09:11:57.130Z,7.50
2018-10-06T09:12:57.170Z,6.90
2018-10-06T09:13:57.125Z,7.20
2018-10-06T09:14:57.164Z,7.30
2018-10-06T09:15:57.253Z,6.80
2018-10-06T09:16:57.221Z,6.30
2018-10-06T09:17:57.414Z,6.40
2018-10-06T09:18:57.269Z,7.00
2018-10-06T09:19:57.288Z,6.40
2018-10-06T09:20:57.279Z,6.30
2018-10-06T09:21:57.299Z,6.60
2018-10-06T09:22:57.311Z,6.40
2018-10-06T09:23:57.325Z,6.20
2018-10-06T09:24:57.378Z,6.00
2018-10-06T09:25:57.368Z,5.90
2018-10-06T09:26:57.467Z,5.50
2018-10-06T09:27:57.414Z,6.10
2018-10-06T09:28:57.431Z,6.10
2018-10-06T09:29:57.522Z,6.50
2018-10-06T09:30:57.484Z,6.10
2018-10-06T09:31:57.491Z,6.00
2018-10-06T09:32:57.509Z,5.80
2018-10-06T09:33:57.535Z,5.50
2018-10-06T09:34:57.550Z,5.60
2018-10-06T09:35:57.580Z,5.00
2018-10-06T09:36:57.595Z,4.80
2018-10-06T09:37:57.611Z,5.00
2018-10-06T09:38:57.634Z,5.20
2018-10-06T09:39:57.665Z,5.00
2018-10-06T09:40:57.697Z,4.50
2018-10-06T09:41:57.768Z,4.40
2018-10-06T09:42:57.829Z,4.00
2018-10-06T09:43:57.735Z,3.90
2018-10-06T09:44:57.762Z,4.10
2018-10-06T09:45:57.790Z,4.20
2018-10-06T09:46:57.799Z,4.20
2018-10-06T09:47:57.885Z,4.00
2018-10-06T09:48:57.851Z,4.10
2018-10-06T09:49:57.862Z,4.00
2018-10-06T09:50:57.883Z,3.90
2018-10-06T09:51:57.941Z,4.00
2018-10-06T09:52:57.954Z,4.30
2018-10-06T09:53:57.951Z,4.10
2018-10-06T09:54:57.974Z,3.90
2018-10-06T09:55:57.996Z,4.30
2018-10-06T09:56:58.017Z,4.10
2018-10-06T09:57:58.032Z,4.60
2018-10-06T09:58:58.052Z,4.40
2018-10-06T09:59:58.071Z,4.10
2018-10-06T10:00:58.097Z,4.30
2018-10-06T10:01:58.117Z,4.50
2018-10-06T10:02:58.133Z,4.10
2018-10-06T10:03:58.161Z,3.90
2018-10-06T10:04:58.183Z,4.20
2018-10-06T10:05:58.235Z,4.10
2018-10-06T10:06:58.219Z,3.90
2018-10-06T10:07:58.237Z,4.30
2018-10-06T10:08:58.274Z,4.10
2018-10-06T10:09:58.427Z,3.90
2018-10-06T10:10:58.321Z,4.10
2018-10-06T10:11:58.333Z,3.90
2018-10-06T10:12:58.349Z,3.80
2018-10-06T10:13:58.374Z,3.80
2018-10-06T10:14:58.389Z,3.90
2018-10-06T10:15:58.440Z,3.70
2018-10-06T10:16:58.498Z,3.90
2018-10-06T10:17:58.514Z,3.80
2018-10-06T10:18:58.475Z,4.00
2018-10-06T10:19:58.498Z,4.00
2018-10-06T10:20:58.516Z,3.70
2018-10-06T10:21:58.634Z,3.90
2018-10-06T10:22:58.612Z,4.00
2018-10-06T10:23:58.765Z,4.00
2018-10-06T10:24:58.679Z,4.30
2018-10-06T10:25:58.624Z,3.90
2018-10-06T10:26:58.645Z,3.80
2018-10-06T10:27:58.670Z,3.70
2018-10-06T10:28:58.759Z,4.00
2018-10-06T10:29:58.713Z,3.90
2018-10-06T10:30:58.728Z,3.80
2018-10-06T10:31:58.781Z,3.40
2018-10-06T10:32:58.788Z,3.70
2018-10-06T10:33:58.803Z,3.40
2018-10-06T10:34:58.854Z,4.00
2018-10-06T10:35:58.851Z,3.70
2018-10-06T10:36:58.865Z,3.60
2018-10-06T10:37:58.897Z,3.50
2018-10-06T10:38:58.916Z,3.80
2018-10-06T10:39:58.929Z,3.70
2018-10-06T10:40:58.947Z,3.80
2018-10-06T10:41:58.968Z,3.90
2018-10-06T10:42:59.019Z,3.70
2018-10-06T10:43:59.071Z,3.20
2018-10-06T10:44:59.054Z,3.20
2018-10-06T10:45:59.060Z,3.60
2018-10-06T10:46:59.078Z,3.50
2018-10-06T10:47:59.105Z,3.40
2018-10-06T10:48:59.120Z,3.40
2018-10-06T10:49:59.145Z,3.20
2018-10-06T10:50:59.170Z,3.20
2018-10-06T10:51:59.187Z,3.20
2018-10-06T10:52:59.220Z,3.00
2018-10-06T10:53:59.242Z,3.20
2018-10-06T10:54:59.255Z,2.80
2018-10-06T10:55:59.275Z,2.90
2018-10-06T10:56:59.308Z,2.60
2018-10-06T10:57:59.334Z,3.00
2018-10-06T10:58:59.347Z,3.10
2018-10-06T10:59:59.517Z,2.80
2018-10-06T11:00:59.413Z,3.20
2018-10-06T11:01:59.421Z,2.90
2018-10-06T11:02:59.434Z,2.80
2018-10-06T11:03:59.476Z,2.80
2018-10-06T11:04:59.484Z,2.70
2018-10-06T11:05:59.494Z,2.70
2018-10-06T11:06:59.518Z,2.70
2018-10-06T11:07:59.539Z,2.80
2018-10-06T11:08:59.572Z,2.60
2018-10-06T11:09:59.592Z,3.30
2018-10-06T11:10:59.612Z,3.10
2018-10-06T11:11:59.633Z,2.80
2018-10-06T11:12:59.653Z,2.80
2018-10-06T11:13:59.682Z,2.50
2018-10-06T11:14:59.699Z,2.90
2018-10-06T11:15:59.724Z,2.90
2018-10-06T11:16:59.741Z,2.40
2018-10-06T11:17:59.770Z,2.70
2018-10-06T11:18:59.789Z,2.50
2018-10-06T11:19:59.818Z,2.40
2018-10-06T11:20:59.836Z,2.70
2018-10-06T11:21:59.859Z,2.70
2018-10-06T11:22:59.877Z,2.50
2018-10-06T11:23:59.905Z,2.60
2018-10-06T11:25:00.025Z,2.60
2018-10-06T11:25:59.946Z,2.40
2018-10-06T11:26:59.971Z,2.60
2018-10-06T11:27:59.997Z,2.40
2018-10-06T11:29:00.017Z,2.60
2018-10-06T11:30:00.039Z,2.30
2018-10-06T11:31:00.060Z,2.30
2018-10-06T11:32:00.085Z,2.60
2018-10-06T11:33:00.106Z,2.50
2018-10-06T11:34:00.127Z,2.30
2018-10-06T11:35:00.152Z,2.50
2018-10-06T11:36:00.180Z,2.40
2018-10-06T11:37:00.197Z,2.20
2018-10-06T11:38:00.285Z,2.20
2018-10-06T11:39:00.240Z,2.30
2018-10-06T11:40:00.264Z,2.40
2018-10-06T11:41:00.285Z,2.30
2018-10-06T11:42:00.313Z,2.50
2018-10-06T11:43:00.338Z,2.40
2018-10-06T11:44:00.353Z,2.20
2018-10-06T11:45:00.385Z,2.80
2018-10-06T11:46:00.401Z,2.10
2018-10-06T11:47:00.421Z,2.40
2018-10-06T11:48:00.444Z,2.20
2018-10-06T11:49:00.472Z,2.20
2018-10-06T11:50:00.577Z,2.50
2018-10-06T11:51:00.517Z,2.20
2018-10-06T11:52:00.539Z,2.50
2018-10-06T11:53:00.563Z,2.20
2018-10-06T11:54:00.593Z,2.20
2018-10-06T11:55:00.610Z,2.30
2018-10-06T11:56:00.636Z,2.10
2018-10-06T11:57:00.653Z,2.20
2018-10-06T11:58:00.679Z,2.50
2018-10-06T11:59:00.699Z,2.50
2018-10-06T12:00:00.806Z,2.10
2018-10-06T12:01:00.752Z,2.50
2018-10-06T12:02:00.774Z,2.50
2018-10-06T12:03:00.797Z,2.30
2018-10-06T12:04:00.819Z,2.30
2018-10-06T12:05:00.845Z,2.60
2018-10-06T12:06:00.865Z,2.40
2018-10-06T12:07:00.891Z,2.50
2018-10-06T12:08:00.908Z,2.60
2018-10-06T12:09:00.931Z,2.40
2018-10-06T12:10:00.959Z,2.30
2018-10-06T12:11:00.985Z,2.50
2018-10-06T12:12:01.007Z,2.20
2018-10-06T12:13:01.028Z,2.60
2018-10-06T12:14:01.055Z,2.40
2018-10-06T12:15:01.081Z,2.30
2018-10-06T12:16:01.094Z,2.40
2018-10-06T12:17:01.137Z,2.80
2018-10-06T12:18:01.145Z,2.40
2018-10-06T12:19:01.172Z,2.50
2018-10-06T12:20:01.194Z,2.40
2018-10-06T12:21:01.221Z,2.20
2018-10-06T12:22:01.237Z,2.20
2018-10-06T12:23:01.260Z,2.30
2018-10-06T12:24:01.288Z,2.20
2018-10-06T12:25:01.328Z,2.40
2018-10-06T12:26:01.375Z,2.60
2018-10-06T12:27:01.362Z,2.70
2018-10-06T12:28:01.388Z,2.80
2018-10-06T12:29:01.406Z,2.20
2018-10-06T12:30:01.434Z,2.40
2018-10-06T12:31:01.449Z,2.40
2018-10-06T12:32:01.476Z,2.20
2018-10-06T12:33:01.497Z,2.30
2018-10-06T12:34:01.524Z,2.20
2018-10-06T12:35:01.557Z,2.30
2018-10-06T12:36:01.571Z,2.50
2018-10-06T12:37:01.594Z,2.80
2018-10-06T12:38:01.620Z,2.50
2018-10-06T12:39:01.651Z,2.40
2018-10-06T12:40:01.666Z,2.60
2018-10-06T12:41:01.683Z,2.60
2018-10-06T12:42:01.713Z,2.40
2018-10-06T12:43:01.730Z,2.20
2018-10-06T12:44:01.753Z,2.50
2018-10-06T12:45:01.783Z,2.30
2018-10-06T12:46:01.798Z,2.80
2018-10-06T12:47:01.824Z,3.80
2018-10-06T12:48:01.848Z,3.10
2018-10-06T12:49:01.873Z,2.70
2018-10-06T12:50:01.897Z,2.60
2018-10-06T12:51:01.922Z,2.60
2018-10-06T12:52:01.959Z,3.10
2018-10-06T12:53:01.972Z,3.30
2018-10-06T12:54:01.992Z,3.50
2018-10-06T12:55:02.054Z,2.70
2018-10-06T12:56:02.038Z,2.80
2018-10-06T12:57:02.066Z,2.70
2018-10-06T12:58:02.087Z,3.50
2018-10-06T12:59:02.109Z,3.30
2018-10-06T13:00:02.162Z,2.90
2018-10-06T13:01:02.158Z,2.50
2018-10-06T13:02:02.179Z,3.20
2018-10-06T13:03:02.204Z,2.50
2018-10-06T13:04:02.226Z,3.00
2018-10-06T13:05:02.258Z,2.50
2018-10-06T13:06:02.299Z,2.80
2018-10-06T13:07:02.309Z,2.60
2018-10-06T13:08:02.327Z,2.80
2018-10-06T13:09:02.347Z,2.70
2018-10-06T13:10:02.376Z,2.70
2018-10-06T13:11:02.400Z,2.80
2018-10-06T13:12:02.512Z,2.50
2018-10-06T13:13:02.444Z,2.80
2018-10-06T13:14:02.471Z,2.40
2018-10-06T13:15:02.494Z,2.40
2018-10-06T13:16:02.510Z,2.50
2018-10-06T13:17:02.534Z,2.40
2018-10-06T13:18:02.562Z,2.80
2018-10-06T13:19:02.584Z,2.80
2018-10-06T13:20:02.605Z,2.70
2018-10-06T13:21:02.640Z,2.90
2018-10-06T13:22:02.654Z,2.50
2018-10-06T13:23:02.684Z,2.40
2018-10-06T13:24:02.703Z,2.40
2018-10-06T13:25:02.724Z,2.40
2018-10-06T13:26:02.753Z,2.50
2018-10-06T13:27:02.783Z,2.50
2018-10-06T13:28:02.800Z,2.40
2018-10-06T13:29:02.821Z,2.60
2018-10-06T13:30:02.850Z,2.40
2018-10-06T13:31:02.878Z,2.50
2018-10-06T13:32:03.042Z,2.50
2018-10-06T13:33:02.926Z,2.40
2018-10-06T13:34:02.946Z,2.40
2018-10-06T13:35:02.972Z,2.50
2018-10-06T13:36:02.993Z,2.40
2018-10-06T13:37:03.022Z,2.40
2018-10-06T13:38:03.042Z,2.60
2018-10-06T13:39:03.069Z,2.30
2018-10-06T13:40:03.092Z,2.60
2018-10-06T13:41:03.109Z,2.30
2018-10-06T13:42:03.138Z,2.50
2018-10-06T13:43:03.157Z,2.80
2018-10-06T13:44:03.179Z,2.40
2018-10-06T13:45:03.215Z,2.40
2018-10-06T13:46:03.232Z,2.30
2018-10-06T13:47:03.253Z,2.50
2018-10-06T13:48:03.276Z,2.50
2018-10-06T13:49:03.301Z,2.40
2018-10-06T13:50:03.330Z,2.80
2018-10-06T13:51:03.359Z,2.60
2018-10-06T13:52:03.371Z,2.70
2018-10-06T13:53:03.397Z,2.70
2018-10-06T13:54:03.422Z,2.60
2018-10-06T13:55:03.447Z,2.50
2018-10-06T13:56:03.473Z,2.50
2018-10-06T13:57:03.492Z,2.50
2018-10-06T13:58:03.540Z,2.60
2018-10-06T13:59:03.549Z,2.50
2018-10-06T14:00:03.570Z,2.40
2018-10-06T14:01:03.589Z,2.30
2018-10-06T14:02:03.618Z,2.50
2018-10-06T14:03:03.675Z,2.80
2018-10-06T14:04:03.678Z,2.80
2018-10-06T14:05:03.692Z,2.50
2018-10-06T14:06:03.714Z,2.60
2018-10-06T14:07:03.738Z,2.30
2018-10-06T14:08:03.762Z,2.50
2018-10-06T14:09:03.790Z,2.60
2018-10-06T14:10:03.811Z,2.50
2018-10-06T14:11:03.834Z,2.70
2018-10-06T14:12:03.859Z,2.70
2018-10-06T14:13:03.899Z,2.70
2018-10-06T14:14:03.904Z,2.60
2018-10-06T14:15:03.924Z,2.40
2018-10-06T14:16:03.949Z,2.50
2018-10-06T14:17:03.971Z,2.50
2018-10-06T14:18:04.002Z,2.40
2018-10-06T14:19:04.022Z,2.20
2018-10-06T14:20:04.046Z,2.40
2018-10-06T14:21:04.083Z,2.30
2018-10-06T14:22:04.094Z,2.30
2018-10-06T14:23:04.124Z,2.50
2018-10-06T14:24:04.161Z,2.50
2018-10-06T14:25:04.164Z,2.30
2018-10-06T14:26:04.189Z,2.50
2018-10-06T14:27:04.216Z,2.50
2018-10-06T14:28:04.238Z,2.40
2018-10-06T14:29:04.264Z,2.40
2018-10-06T14:30:04.286Z,2.40
2018-10-06T14:31:04.304Z,2.50
2018-10-06T14:32:04.335Z,2.50
2018-10-06T14:33:04.352Z,2.50
2018-10-06T14:34:04.383Z,2.60
2018-10-06T14:35:04.408Z,2.40
2018-10-06T14:36:04.423Z,2.60
2018-10-06T14:37:04.448Z,2.10
2018-10-06T14:38:04.470Z,2.60
2018-10-06T14:39:04.498Z,2.40
2018-10-06T14:40:04.525Z,2.50
2018-10-06T14:41:04.548Z,2.30
2018-10-06T14:42:04.569Z,3.00
2018-10-06T14:43:04.598Z,2.50
2018-10-06T14:44:04.628Z,2.40
2018-10-06T14:45:04.643Z,2.50
2018-10-06T14:46:04.663Z,2.20
2018-10-06T14:47:04.727Z,2.70
2018-10-06T14:48:04.708Z,2.20
2018-10-06T14:49:04.731Z,2.40
2018-10-06T14:50:04.809Z,2.60
2018-10-06T14:51:04.782Z,2.70
2018-10-06T14:52:04.807Z,2.30
2018-10-06T14:53:04.829Z,2.50
2018-10-06T14:54:04.850Z,2.30
2018-10-06T14:55:04.879Z,2.10
2018-10-06T14:56:04.916Z,2.50
2018-10-06T14:57:04.922Z,2.50
2018-10-06T14:58:04.945Z,2.70
2018-10-06T14:59:04.968Z,2.30
2018-10-06T15:00:04.998Z,2.40
2018-10-06T15:01:05.021Z,2.40
2018-10-06T15:02:05.046Z,2.30
2018-10-06T15:03:05.065Z,2.60
2018-10-06T15:04:05.095Z,2.40
2018-10-06T15:05:05.110Z,2.50
2018-10-06T15:06:05.133Z,2.60
2018-10-06T15:07:05.160Z,2.20
2018-10-06T15:08:05.183Z,2.30
2018-10-06T15:09:05.209Z,2.50
2018-10-06T15:10:05.232Z,2.50